createdAt,value
2023-02-17T00:01:36.186Z,234.65
2023-02-17T00:04:04.251Z,234.98
2023-02-17T00:06:32.677Z,234.52
2023-02-17T00:09:02.024Z,233.93
2023-02-17T00:11:30.445Z,250.43
2023-02-17T00:13:59.452Z,244.82
2023-02-17T00:16:29.076Z,245.10
2023-02-17T00:19:01.012Z,237.57
2023-02-17T00:21:31.814Z,234.73
2023-02-17T00:24:00.010Z,249.13
2023-02-17T00:26:29.022Z,238.38
2023-02-17T00:28:58.641Z,248.93
2023-02-17T00:31:26.838Z,241.95
2023-02-17T00:33:56.042Z,236.50
2023-02-17T00:36:24.753Z,234.48
2023-02-17T00:38:55.205Z,240.02
2023-02-17T00:41:24.022Z,246.70
2023-02-17T00:43:51.519Z,232.45
2023-02-17T00:46:20.180Z,230.20
2023-02-17T00:48:48.909Z,243.98
2023-02-17T00:51:18.507Z,238.15
2023-02-17T00:53:46.984Z,242.18
2023-02-17T00:56:15.836Z,231.02
2023-02-17T00:58:46.367Z,234.82
2023-02-17T01:01:14.114Z,239.10
2023-02-17T01:03:42.381Z,251.57
2023-02-17T01:06:22.355Z,251.70
2023-02-17T01:08:50.657Z,242.07
2023-02-17T01:11:31.809Z,261.38
2023-02-17T01:14:02.072Z,234.15
2023-02-17T01:16:35.563Z,247.63
2023-02-17T01:19:11.511Z,267.15
2023-02-17T01:21:39.732Z,247.93
2023-02-17T01:24:13.121Z,252.60
2023-02-17T01:26:41.110Z,247.95
2023-02-17T01:29:09.278Z,255.07
2023-02-17T01:31:37.144Z,247.02
2023-02-17T01:34:05.652Z,258.35
2023-02-17T01:36:34.307Z,246.27
2023-02-17T01:39:01.953Z,252.48
2023-02-17T01:41:30.298Z,255.85
2023-02-17T01:44:21.837Z,265.63
2023-02-17T01:46:52.729Z,277.42
2023-02-17T01:49:38.376Z,269.67
2023-02-17T01:52:24.867Z,259.88
2023-02-17T01:55:01.436Z,245.93
2023-02-17T01:57:32.257Z,266.55
2023-02-17T02:00:00.317Z,245.55
2023-02-17T02:02:31.056Z,238.63
2023-02-17T02:04:59.065Z,238.85
2023-02-17T02:07:36.710Z,233.18
2023-02-17T02:10:05.208Z,231.38
2023-02-17T02:12:38.667Z,245.05
2023-02-17T02:15:13.198Z,230.90
2023-02-17T02:17:59.632Z,227.15
2023-02-17T02:20:33.842Z,236.15
2023-02-17T02:23:32.413Z,233.68
2023-02-17T02:26:47.626Z,223.98
2023-02-17T02:29:20.824Z,230.27
2023-02-17T02:32:38.168Z,231.63
2023-02-17T02:35:22.647Z,232.85
2023-02-17T02:38:12.670Z,230.10
2023-02-17T02:40:50.218Z,228.98
2023-02-17T02:43:18.707Z,227.50
2023-02-17T02:45:46.435Z,236.00
2023-02-17T02:48:14.032Z,227.20
2023-02-17T02:51:06.235Z,233.73
2023-02-17T02:53:52.648Z,235.93
2023-02-17T02:56:48.532Z,231.52
2023-02-17T02:59:31.932Z,221.85
2023-02-17T03:02:29.924Z,217.32
2023-02-17T03:05:53.381Z,200.48
2023-02-17T03:08:38.392Z,176.90
2023-02-17T03:11:07.517Z,174.93
2023-02-17T03:13:39.556Z,181.27
2023-02-17T03:16:12.208Z,181.20
2023-02-17T03:18:40.252Z,173.80
2023-02-17T03:21:16.417Z,175.57
2023-02-17T03:23:44.091Z,164.63
2023-02-17T03:26:12.171Z,154.57
2023-02-17T03:28:40.106Z,153.43
2023-02-17T03:31:08.889Z,144.93
2023-02-17T03:33:36.932Z,143.77
2023-02-17T03:36:05.421Z,138.85
2023-02-17T03:38:33.685Z,153.30
2023-02-17T03:41:01.225Z,133.68
2023-02-17T03:43:29.258Z,138.57
2023-02-17T03:45:57.289Z,140.63
2023-02-17T03:48:25.331Z,144.70
2023-02-17T03:50:53.351Z,138.27
2023-02-17T03:53:21.174Z,140.05
2023-02-17T03:55:49.140Z,144.18
2023-02-17T03:58:16.666Z,142.32
2023-02-17T04:00:44.107Z,137.05
2023-02-17T04:03:12.096Z,136.73
2023-02-17T04:05:40.050Z,136.88
2023-02-17T04:08:08.024Z,145.48
2023-02-17T04:10:35.491Z,139.70
2023-02-17T04:13:04.089Z,134.88
2023-02-17T04:15:32.795Z,138.68
2023-02-17T04:18:00.468Z,133.93
2023-02-17T04:20:28.464Z,141.13
2023-02-17T04:22:56.856Z,146.63
2023-02-17T04:25:24.828Z,132.77
2023-02-17T04:27:52.871Z,130.07
2023-02-17T04:30:20.534Z,131.60
2023-02-17T04:32:48.125Z,141.32
2023-02-17T04:35:15.708Z,141.68
2023-02-17T04:37:43.806Z,132.07
2023-02-17T04:40:12.221Z,135.10
2023-02-17T04:42:40.137Z,138.05
2023-02-17T04:45:08.502Z,133.75
2023-02-17T04:47:36.793Z,124.47
2023-02-17T04:50:05.787Z,125.25
2023-02-17T04:52:33.722Z,119.43
2023-02-17T04:55:02.396Z,123.32
2023-02-17T04:57:30.048Z,121.75
2023-02-17T04:59:57.634Z,110.80
2023-02-17T05:02:28.498Z,89.85
2023-02-17T05:04:56.558Z,91.47
2023-02-17T05:07:24.708Z,90.13
2023-02-17T05:09:54.245Z,96.07
2023-02-17T05:12:22.260Z,105.32
2023-02-17T05:14:50.151Z,107.15
2023-02-17T05:17:18.653Z,95.97
2023-02-17T05:19:46.119Z,109.82
2023-02-17T05:22:14.145Z,106.07
2023-02-17T05:24:42.169Z,117.30
2023-02-17T05:27:09.929Z,116.25
2023-02-17T05:29:38.176Z,121.15
2023-02-17T05:32:05.719Z,124.63
2023-02-17T05:34:33.719Z,126.38
2023-02-17T05:37:01.629Z,128.52
2023-02-17T05:39:29.505Z,134.85
2023-02-17T05:41:57.639Z,133.07
2023-02-17T05:44:25.740Z,127.15
2023-02-17T05:46:53.978Z,137.88
2023-02-17T05:49:22.008Z,138.43
2023-02-17T05:51:49.655Z,133.65
2023-02-17T05:54:17.597Z,129.20
2023-02-17T05:56:45.156Z,124.30
2023-02-17T05:59:12.661Z,136.02
2023-02-17T06:01:41.137Z,128.40
2023-02-17T06:04:09.223Z,133.30
2023-02-17T06:06:36.772Z,123.28
2023-02-17T06:09:04.415Z,124.00
2023-02-17T06:11:33.743Z,120.75
2023-02-17T06:14:02.148Z,132.13
2023-02-17T06:16:29.951Z,150.70
2023-02-17T06:19:00.055Z,137.35
2023-02-17T06:21:28.139Z,128.30
2023-02-17T06:23:56.270Z,133.95
2023-02-17T06:26:24.188Z,138.82
2023-02-17T06:28:52.077Z,125.75
2023-02-17T06:31:19.827Z,128.18
2023-02-17T06:33:47.700Z,123.30
2023-02-17T06:36:15.756Z,134.77
2023-02-17T06:38:43.628Z,130.45
2023-02-17T06:41:11.596Z,139.35
2023-02-17T06:43:39.661Z,124.13
2023-02-17T06:46:08.072Z,131.95
2023-02-17T06:48:35.942Z,120.63
2023-02-17T06:51:04.652Z,118.25
2023-02-17T06:53:32.876Z,118.65
2023-02-17T06:56:01.149Z,115.18
2023-02-17T06:58:29.164Z,109.30
2023-02-17T07:00:56.668Z,117.85
2023-02-17T07:03:24.589Z,125.30
2023-02-17T07:05:57.547Z,121.88
2023-02-17T07:08:26.630Z,113.60
2023-02-17T07:10:54.878Z,125.38
2023-02-17T07:13:22.846Z,122.93
2023-02-17T07:15:50.425Z,127.60
2023-02-17T07:18:18.448Z,119.60
2023-02-17T07:20:46.413Z,113.15
2023-02-17T07:23:14.120Z,108.90
2023-02-17T07:25:42.352Z,114.65
2023-02-17T07:28:10.685Z,119.22
2023-02-17T07:30:43.548Z,114.65
2023-02-17T07:33:11.576Z,113.65
2023-02-17T07:35:46.722Z,123.38
2023-02-17T07:38:14.741Z,116.45
2023-02-17T07:40:43.220Z,121.45
2023-02-17T07:43:11.241Z,123.05
2023-02-17T07:45:39.376Z,123.53
2023-02-17T07:48:06.890Z,118.15
2023-02-17T07:50:34.966Z,132.88
2023-02-17T07:53:02.569Z,129.30
2023-02-17T07:55:30.569Z,124.70
2023-02-17T07:57:59.948Z,137.25
2023-02-17T08:00:28.172Z,132.02
2023-02-17T08:02:56.234Z,138.52
2023-02-17T08:05:23.886Z,132.75
2023-02-17T08:08:12.016Z,136.25
2023-02-17T08:11:16.234Z,149.13
2023-02-17T08:13:45.582Z,153.00
2023-02-17T08:16:13.166Z,161.95
2023-02-17T08:18:41.264Z,161.43
2023-02-17T08:21:09.126Z,157.45
2023-02-17T08:23:37.189Z,149.40
2023-02-17T08:26:05.481Z,152.68
2023-02-17T08:28:33.411Z,142.85
2023-02-17T08:31:02.826Z,153.32
2023-02-17T08:33:30.868Z,152.32
2023-02-17T08:35:58.839Z,158.30
2023-02-17T08:38:27.179Z,168.95
2023-02-17T08:40:54.754Z,159.38
2023-02-17T08:43:23.306Z,149.02
2023-02-17T08:45:51.411Z,146.55
2023-02-17T08:48:19.469Z,152.30
2023-02-17T08:50:48.429Z,159.95
2023-02-17T08:53:16.984Z,156.43
2023-02-17T08:55:49.496Z,180.10
2023-02-17T08:58:18.077Z,177.55
2023-02-17T09:00:45.621Z,186.27
2023-02-17T09:03:14.050Z,180.80
2023-02-17T09:05:42.646Z,233.95
2023-02-17T09:08:11.135Z,200.88
2023-02-17T09:10:39.624Z,207.70
2023-02-17T09:13:07.698Z,204.93
2023-02-17T09:15:35.434Z,207.65
2023-02-17T09:18:04.002Z,212.55
2023-02-17T09:20:32.433Z,196.88
2023-02-17T09:23:00.163Z,180.90
2023-02-17T09:25:28.364Z,169.00
2023-02-17T09:27:57.956Z,180.85
2023-02-17T09:30:27.118Z,198.82
2023-02-17T09:32:55.069Z,194.43
2023-02-17T09:35:23.197Z,184.88
2023-02-17T09:37:51.334Z,193.38
2023-02-17T09:40:28.710Z,197.27
2023-02-17T09:42:56.702Z,190.10
2023-02-17T09:45:32.982Z,178.02
2023-02-17T09:48:06.430Z,197.85
2023-02-17T09:50:53.658Z,168.98
2023-02-17T09:53:50.844Z,195.02
2023-02-17T09:56:26.631Z,177.57
2023-02-17T09:58:57.958Z,185.23
2023-02-17T10:01:31.079Z,181.88
2023-02-17T10:04:05.201Z,193.40
2023-02-17T10:06:36.141Z,191.45
2023-02-17T10:09:03.700Z,184.93
2023-02-17T10:11:33.868Z,190.50
2023-02-17T10:14:42.668Z,192.70
2023-02-17T10:17:37.842Z,201.95
2023-02-17T10:20:24.161Z,200.43
2023-02-17T10:22:59.900Z,189.43
2023-02-17T10:25:54.079Z,183.43
2023-02-17T10:28:39.756Z,197.60
2023-02-17T10:31:15.521Z,185.88
2023-02-17T10:34:01.111Z,178.10
2023-02-17T10:36:58.101Z,187.43
2023-02-17T10:39:52.106Z,195.45
2023-02-17T10:42:36.473Z,198.60
2023-02-17T10:45:10.787Z,201.30
2023-02-17T10:47:40.120Z,196.32
2023-02-17T10:50:28.623Z,214.25
2023-02-17T10:52:56.756Z,198.68
2023-02-17T10:55:39.153Z,205.60
2023-02-17T10:58:34.338Z,210.75
2023-02-17T11:01:05.521Z,194.85
2023-02-17T11:03:36.962Z,190.20
2023-02-17T11:06:07.677Z,200.73
2023-02-17T11:08:41.547Z,196.52
2023-02-17T11:16:32.486Z,191.63
2023-02-17T11:19:01.279Z,182.70
2023-02-17T11:21:33.256Z,185.52
2023-02-17T11:24:04.790Z,193.73
2023-02-17T11:26:35.552Z,180.32
2023-02-17T11:29:22.802Z,184.13
2023-02-17T11:32:04.922Z,190.80
2023-02-17T11:34:34.909Z,188.45
2023-02-17T11:37:12.107Z,183.23
2023-02-17T11:39:42.267Z,194.20
2023-02-17T11:42:30.784Z,187.68
2023-02-17T11:45:00.623Z,186.52
2023-02-17T11:47:52.073Z,183.48
2023-02-17T11:50:40.921Z,184.73
2023-02-17T11:53:47.409Z,175.98
2023-02-17T11:56:22.814Z,172.85
2023-02-17T11:59:07.628Z,181.10
2023-02-17T12:01:50.204Z,169.88
2023-02-17T12:04:27.185Z,168.18
2023-02-17T12:07:15.377Z,168.50
2023-02-17T12:10:07.151Z,157.98
2023-02-17T12:13:13.719Z,157.07
2023-02-17T12:16:07.702Z,172.50
2023-02-17T12:19:19.773Z,146.75
2023-02-17T12:22:19.549Z,159.10
2023-02-17T12:25:11.504Z,146.27
2023-02-17T12:28:15.175Z,140.82
2023-02-17T12:31:05.134Z,143.03
2023-02-17T12:33:44.912Z,140.20
2023-02-17T12:36:16.018Z,129.98
2023-02-17T12:38:50.087Z,124.38
2023-02-17T12:41:41.292Z,115.30
2023-02-17T12:44:21.375Z,112.20
2023-02-17T12:46:57.475Z,107.80
2023-02-17T12:49:48.451Z,111.57
2023-02-17T12:52:22.340Z,103.28
2023-02-17T12:55:05.191Z,101.47
2023-02-17T12:57:56.205Z,95.20
2023-02-17T13:00:27.283Z,97.35
2023-02-17T13:02:59.179Z,95.30
2023-02-17T13:06:10.033Z,77.13
2023-02-17T13:08:57.735Z,84.78
2023-02-17T13:11:31.712Z,77.07
2023-02-17T13:14:24.966Z,66.68
2023-02-17T13:16:53.158Z,71.32
2023-02-17T13:19:32.385Z,65.15
2023-02-17T13:22:03.370Z,70.45
2023-02-17T13:24:53.234Z,64.07
2023-02-17T13:27:32.980Z,66.13
2023-02-17T13:30:29.443Z,63.80
2023-02-17T13:33:06.192Z,55.85
2023-02-17T13:35:37.426Z,51.65
2023-02-17T13:38:05.505Z,44.05
2023-02-17T13:40:39.243Z,52.55
2023-02-17T13:43:16.166Z,50.85
2023-02-17T13:46:03.265Z,61.58
2023-02-17T13:48:36.120Z,61.25
2023-02-17T13:51:07.145Z,62.80
2023-02-17T13:53:40.422Z,62.10
2023-02-17T13:56:12.310Z,46.88
2023-02-17T13:58:42.148Z,36.78
2023-02-17T14:01:17.507Z,25.98
2023-02-17T14:03:51.458Z,21.20
2023-02-17T14:06:40.501Z,30.42
2023-02-17T14:09:27.473Z,23.55
2023-02-17T14:11:56.185Z,22.08
2023-02-17T14:14:28.112Z,22.83
2023-02-17T14:17:09.247Z,22.00
2023-02-17T14:19:49.095Z,24.35
2023-02-17T14:22:34.138Z,29.23
2023-02-17T14:25:05.969Z,27.23
2023-02-17T14:27:52.976Z,26.17
2023-02-17T14:30:31.127Z,27.70
2023-02-17T14:33:23.968Z,31.85
2023-02-17T14:36:06.467Z,30.17
2023-02-17T14:38:41.444Z,23.65
2023-02-17T14:41:11.002Z,24.40
2023-02-17T14:43:38.906Z,28.42
2023-02-17T14:46:07.670Z,26.17
2023-02-17T14:48:35.805Z,26.13
2023-02-17T14:51:06.948Z,25.50
2023-02-17T14:53:40.518Z,23.48
2023-02-17T14:56:30.102Z,26.05
2023-02-17T14:58:57.749Z,26.90
2023-02-17T15:01:26.212Z,22.23
2023-02-17T15:03:54.910Z,26.63
2023-02-17T15:06:28.806Z,24.88
2023-02-17T15:08:58.648Z,23.60
2023-02-17T15:11:30.402Z,22.75
2023-02-17T15:13:57.966Z,24.45
2023-02-17T15:16:26.233Z,20.60
2023-02-17T15:18:54.902Z,25.02
2023-02-17T15:21:28.777Z,23.60
2023-02-17T15:23:58.776Z,27.08
2023-02-17T15:26:28.142Z,24.63
2023-02-17T15:28:57.759Z,21.33
2023-02-17T15:31:29.457Z,23.42
2023-02-17T15:33:59.594Z,22.95
2023-02-17T15:36:28.769Z,25.52
2023-02-17T15:38:56.594Z,28.58
2023-02-17T15:41:26.946Z,23.98
2023-02-17T15:43:57.403Z,26.08
2023-02-17T15:46:33.253Z,26.40
2023-02-17T15:49:01.268Z,25.35
2023-02-17T15:51:29.352Z,23.45
2023-02-17T15:53:57.017Z,27.33
2023-02-17T15:56:30.363Z,27.58
2023-02-17T15:59:04.468Z,29.10
2023-02-17T16:01:34.828Z,27.83
2023-02-17T16:04:03.156Z,27.67
2023-02-17T16:06:31.531Z,33.33
2023-02-17T16:08:59.778Z,28.15
2023-02-17T16:11:28.848Z,31.50
2023-02-17T16:13:56.901Z,26.92
2023-02-17T16:16:32.892Z,26.95
2023-02-17T16:19:01.974Z,24.90
2023-02-17T16:21:29.766Z,26.13
2023-02-17T16:23:59.901Z,30.38
2023-02-17T16:26:34.362Z,33.40
2023-02-17T16:29:17.354Z,28.98
2023-02-17T16:31:46.184Z,40.58
2023-02-17T16:34:18.521Z,33.35
2023-02-17T16:36:48.896Z,36.03
2023-02-17T16:39:20.204Z,32.35
2023-02-17T16:41:49.172Z,30.65
2023-02-17T16:44:20.220Z,34.17
2023-02-17T16:46:54.607Z,40.75
2023-02-17T16:49:32.726Z,38.15
2023-02-17T16:52:01.492Z,40.28
2023-02-17T16:54:29.674Z,42.75
2023-02-17T16:56:58.543Z,37.67
2023-02-17T16:59:26.816Z,40.38
2023-02-17T17:01:54.492Z,46.13
2023-02-17T17:04:22.330Z,36.45
2023-02-17T17:06:52.418Z,42.90
2023-02-17T17:09:23.821Z,39.78
2023-02-17T17:11:52.139Z,47.83
2023-02-17T17:14:21.629Z,44.47
2023-02-17T17:16:56.794Z,60.63
2023-02-17T17:19:25.567Z,55.33
2023-02-17T17:21:53.725Z,59.13
2023-02-17T17:24:22.098Z,69.18
2023-02-17T17:26:51.858Z,85.70
2023-02-17T17:29:20.726Z,96.93
2023-02-17T17:31:49.011Z,118.53
2023-02-17T17:34:17.191Z,120.60
2023-02-17T17:36:47.327Z,135.73
2023-02-17T17:39:18.701Z,148.73
2023-02-17T17:41:47.233Z,157.73
2023-02-17T17:44:16.303Z,151.77
2023-02-17T17:46:44.495Z,148.95
2023-02-17T17:49:14.597Z,156.82
2023-02-17T17:51:43.007Z,171.27
2023-02-17T17:54:11.626Z,166.65
2023-02-17T17:56:45.587Z,183.60
2023-02-17T17:59:14.322Z,197.95
2023-02-17T18:01:45.123Z,196.52
2023-02-17T18:04:14.195Z,200.63
2023-02-17T18:06:46.105Z,199.27
2023-02-17T18:09:31.083Z,199.52
2023-02-17T18:12:04.802Z,201.07
2023-02-17T18:14:33.111Z,201.85
2023-02-17T18:17:01.332Z,212.57
2023-02-17T18:19:30.906Z,196.23
2023-02-17T18:21:59.121Z,203.90
2023-02-17T18:24:27.165Z,213.27
2023-02-17T18:26:55.104Z,206.30
2023-02-17T18:29:23.015Z,201.77
2023-02-17T18:31:51.229Z,216.68
2023-02-17T18:34:19.561Z,229.75
2023-02-17T18:36:47.052Z,224.70
2023-02-17T18:39:15.406Z,234.30
2023-02-17T18:41:43.869Z,210.05
2023-02-17T18:44:13.732Z,216.70
2023-02-17T18:46:42.465Z,228.13
2023-02-17T18:49:10.496Z,227.23
2023-02-17T18:51:38.561Z,224.25
2023-02-17T18:54:10.797Z,228.43
2023-02-17T18:56:39.498Z,230.52
2023-02-17T18:59:08.116Z,220.90
2023-02-17T19:01:41.519Z,230.50
2023-02-17T19:04:10.239Z,243.13
2023-02-17T19:06:38.004Z,235.60
2023-02-17T19:09:06.229Z,238.45
2023-02-17T19:11:35.223Z,244.88
2023-02-17T19:14:03.441Z,252.07
2023-02-17T19:16:32.737Z,246.10
2023-02-17T19:19:00.879Z,245.57
2023-02-17T19:21:29.288Z,250.05
2023-02-17T19:23:56.815Z,245.02
2023-02-17T19:26:25.076Z,246.27
2023-02-17T19:28:53.210Z,239.57
2023-02-17T19:31:21.540Z,243.07
2023-02-17T19:33:49.821Z,256.00
2023-02-17T19:36:20.591Z,261.52
2023-02-17T19:38:49.987Z,267.48
2023-02-17T19:41:19.314Z,246.05
2023-02-17T19:43:47.400Z,239.18
2023-02-17T19:46:25.737Z,251.63
2023-02-17T19:48:53.749Z,252.55
2023-02-17T19:51:22.595Z,245.13
2023-02-17T19:53:50.600Z,243.82
2023-02-17T19:56:23.277Z,235.55
2023-02-17T19:58:52.108Z,240.13
2023-02-17T20:01:26.368Z,237.73
2023-02-17T20:03:55.208Z,230.43
2023-02-17T20:06:27.899Z,236.27
2023-02-17T20:09:05.070Z,231.98
2023-02-17T20:11:33.930Z,227.80
2023-02-17T20:14:02.135Z,227.85
2023-02-17T20:16:30.666Z,240.05
2023-02-17T20:19:02.044Z,245.52
2023-02-17T20:21:34.081Z,258.77
2023-02-17T20:24:03.428Z,259.08
2023-02-17T20:26:34.360Z,265.25
2023-02-17T20:29:02.992Z,256.83
2023-02-17T20:31:31.400Z,256.10
2023-02-17T20:34:02.155Z,263.52
2023-02-17T20:36:29.893Z,278.55
2023-02-17T20:38:58.472Z,256.48
2023-02-17T20:41:26.260Z,270.08
2023-02-17T20:43:54.267Z,270.02
2023-02-17T20:46:26.172Z,274.48
2023-02-17T20:48:54.533Z,269.67
2023-02-17T20:51:22.510Z,274.88
2023-02-17T20:53:51.300Z,268.90
2023-02-17T20:56:22.541Z,278.20
2023-02-17T20:58:51.797Z,263.67
2023-02-17T21:01:20.186Z,278.55
2023-02-17T21:03:48.306Z,279.50
2023-02-17T21:06:33.994Z,275.55
2023-02-17T21:09:05.674Z,282.08
2023-02-17T21:11:34.091Z,275.02
2023-02-17T21:14:02.101Z,267.60
2023-02-17T21:16:32.144Z,269.30
2023-02-17T21:19:01.485Z,264.42
2023-02-17T21:21:30.489Z,264.63
2023-02-17T21:23:59.812Z,261.65
2023-02-17T21:26:27.626Z,264.42
2023-02-17T21:28:56.183Z,267.00
2023-02-17T21:31:26.238Z,266.63
2023-02-17T21:33:53.896Z,263.75
2023-02-17T21:36:21.463Z,257.50
2023-02-17T21:38:49.453Z,261.80
2023-02-17T21:41:21.594Z,257.38
2023-02-17T21:44:08.164Z,267.83
2023-02-17T21:46:37.543Z,258.23
2023-02-17T21:49:05.574Z,268.25
2023-02-17T21:51:33.120Z,260.48
2023-02-17T21:54:01.212Z,267.42
2023-02-17T21:56:28.992Z,258.27
2023-02-17T21:58:57.876Z,258.83
2023-02-17T22:01:27.147Z,275.35
2023-02-17T22:03:55.305Z,245.48
2023-02-17T22:06:28.633Z,257.75
2023-02-17T22:08:58.078Z,248.40
2023-02-17T22:11:31.943Z,247.70
2023-02-17T22:16:35.927Z,259.30
2023-02-17T22:19:05.237Z,252.88
2023-02-17T22:21:33.846Z,254.43
2023-02-17T22:24:02.721Z,251.57
2023-02-17T22:26:31.347Z,242.57
2023-02-17T22:28:59.495Z,240.80
2023-02-17T22:31:29.149Z,248.13
2023-02-17T22:33:59.115Z,248.20
2023-02-17T22:36:27.998Z,257.40
2023-02-17T22:38:56.510Z,257.10
2023-02-17T22:41:26.093Z,263.50
2023-02-17T22:43:54.579Z,256.90
2023-02-17T22:46:25.206Z,250.48
2023-02-17T22:48:54.839Z,254.88
2023-02-17T22:51:31.861Z,244.07
2023-02-17T22:54:02.904Z,248.43
2023-02-17T22:56:31.364Z,262.75
2023-02-17T22:59:01.574Z,248.38
2023-02-17T23:01:32.189Z,262.25
2023-02-17T23:04:00.931Z,251.32
2023-02-17T23:06:30.162Z,261.45
2023-02-17T23:08:59.750Z,265.88
2023-02-17T23:11:51.094Z,263.70
2023-02-17T23:14:34.050Z,263.70
2023-02-17T23:17:05.425Z,247.27
2023-02-17T23:19:33.284Z,271.45
2023-02-17T23:22:04.179Z,253.63
2023-02-17T23:24:32.445Z,253.15
2023-02-17T23:27:02.141Z,249.55
2023-02-17T23:29:31.981Z,252.85
2023-02-17T23:31:59.806Z,268.08
2023-02-17T23:34:28.419Z,259.00
2023-02-17T23:36:56.469Z,264.00
2023-02-17T23:39:24.596Z,260.17
2023-02-17T23:41:52.489Z,266.25
2023-02-17T23:44:20.197Z,265.60
2023-02-17T23:46:48.011Z,264.38
2023-02-17T23:49:17.089Z,264.70
2023-02-17T23:51:46.908Z,250.65
2023-02-17T23:54:15.819Z,255.88
2023-02-17T23:56:43.729Z,260.23
2023-02-17T23:59:12.162Z,261.60
